EW2889 Weather Reports


Display with metric or nautical units.
time (UTC)temp
F
wind
direction
speed
MPH
gust
MPH
rain 1hr
in
rain 24hr
in
rain mn
in
humidity
%
barometer
mb
20180721114442 73 321 0.0 3.0 0.14 0.59 0.59 97 1010.4
20180721112939 73 347 0.0 0.0 0.17 0.52 0.52 97 1010.7
20180721111438 73 113 0.0 0.0 0.39 0.50 0.50 97 1010.8
20180721105937 72 117 0.0 2.0 0.46 0.50 0.50 97 1011.0
20180721104435 72 14 0.0 3.0 0.43 0.45 0.45 97 1011.2
20180721102932 72 329 0.0 2.0 0.32 0.34 0.34 96 1011.3
20180721101431 72 335 0.0 1.0 0.09 0.11 0.11 96 1011.4
20180721095929 72 100 0.0 3.0 0.03 0.04 0.04 96 1011.4
20180721094424 72 103 0.0 3.0 0.02 0.02 0.02 95 1011.4
20180721092923 72 329 0.0 2.0 0.02 0.02 0.02 95 1011.6
20180721091421 72 340 0.0 2.0 0.02 0.02 0.02 95 1011.8
20180721085918 72 334 0.0 4.0 0.01 0.01 0.01 92 1012.0
20180721084417 73 177 0.0 3.0 0.00 0.00 0.00 89 1012.0
20180721082916 72 72 0.0 4.0 0.00 0.00 0.00 87 1012.1
20180721081416 72 331 0.0 2.0 0.00 0.00 0.00 86 1012.3
20180721075913 72 314 0.0 3.0 0.00 0.00 0.00 86 1012.5
20180721074411 72 111 0.0 4.0 0.00 0.00 0.00 87 1012.6
20180721072911 71 70 0.0 4.0 0.00 0.00 0.00 88 1013.0
20180721071408 71 57 0.0 0.0 0.00 0.00 0.00 88 1013.1
20180721065905 71 169 0.0 0.0 0.00 0.00 0.00 87 1013.2
20180721064403 71 111 0.0 1.0 0.00 0.00 0.00 86 1013.4
20180721062900 71 99 0.0 0.0 0.00 0.00 0.00 83 1013.6
20180721061400 73 150 0.0 6.0 0.00 0.00 0.00 81 1013.9
20180721055856 74 146 1.0 7.0 0.00 0.00 0.00 75 1014.0
20180721054351 76 90 1.0 7.0 0.00 0.00 0.00 68 1014.0
20180721052847 76 135 1.0 5.0 0.00 0.00 0.00 69 1014.1
20180721051346 76 100 0.0 6.0 0.00 0.00 0.00 70 1014.2
20180721045844 76 102 1.0 8.0 0.00 0.00 0.00 69 1014.4
20180721044347 77 88 0.0 6.0 0.00 0.00 0.00 69 1014.6
20180721042843 77 134 1.0 4.0 0.00 0.00 0.00 69 1015.0
20180721041336 76 96 1.0 5.0 0.00 0.00 0.00 71 1015.3
20180721034336 76 64 0.0 4.0 0.00 0.00 0.00 74 1015.5
20180721032830 76 11 0.0 3.0 0.00 0.00 0.00 75 1015.7
20180721031329 76 79 1.0 5.0 0.00 0.00 0.00 74 1015.6
20180721025829 76 79 0.0 6.0 0.00 0.00 0.00 72 1015.8
20180721024327 76 136 0.0 5.0 0.00 0.00 0.00 72 1016.1
20180721022824 76 89 0.0 6.0 0.00 0.00 0.00 73 1016.2
20180721021324 76 83 1.0 6.0 0.00 0.00 0.00 73 1016.2
20180721015824 76 90 0.0 3.0 0.00 0.00 0.00 73 1016.3
20180721014322 76 124 0.0 5.0 0.00 0.00 0.00 73 1016.2
20180721012821 77 136 0.0 5.0 0.00 0.00 0.00 73 1016.2
20180721011321 77 117 0.0 4.0 0.00 0.00 0.00 72 1016.1
20180721005823 77 67 0.0 4.0 0.00 0.00 0.00 72 1016.1
20180721004318 77 137 0.0 4.0 0.00 0.00 0.00 72 1016.2
20180721002823 77 94 1.0 5.0 0.00 0.00 0.00 70 1016.2
20180721001320 78 174 0.0 5.0 0.00 0.00 0.00 70 1016.2
20180720235819 78 105 0.0 4.0 0.00 0.00 0.00 72 1016.2
20180720234317 78 253 0.0 4.0 0.00 0.00 0.00 72 1016.4
20180720232820 79 79 3.0 7.0 0.00 0.00 0.00 71 1016.3
20180720231316 79 112 1.0 7.0 0.00 0.00 0.00 71 1016.2
20180720225818 79 50 3.0 8.0 0.00 0.00 0.00 71 1016.3
20180720224316 79 74 1.0 9.0 0.00 0.00 0.00 72 1016.3
20180720222813 79 101 0.0 5.0 0.00 0.00 0.00 71 1016.3
20180720221313 80 138 1.0 6.0 0.00 0.00 0.00 70 1016.4
20180720215812 80 330 1.0 9.0 0.00 0.00 0.00 68 1016.5
20180720214313 81 341 2.0 6.0 0.00 0.00 0.00 67 1016.6
20180720212809 80 19 1.0 7.0 0.00 0.00 0.00 67 1016.6
20180720211308 81 83 1.0 7.0 0.00 0.00 0.00 66 1016.7
20180720205807 82 297 0.0 4.0 0.00 0.00 0.00 63 1016.8
20180720204307 83 22 1.0 6.0 0.00 0.00 0.00 62 1016.9
20180720202807 83 41 1.0 7.0 0.00 0.00 0.00 58 1016.8
20180720201305 84 74 2.0 6.0 0.00 0.00 0.00 56 1016.9
20180720195807 84 305 0.0 6.0 0.00 0.00 0.00 57 1017.1
20180720194302 83 133 2.0 7.0 0.00 0.00 0.00 56 1017.2
20180720192801 84 115 2.0 8.0 0.00 0.00 0.00 55 1017.3
20180720191259 83 70 1.0 6.0 0.00 0.00 0.00 56 1017.5
20180720185759 82 157 2.0 8.0 0.00 0.00 0.00 56 1017.7
20180720184300 82 59 1.0 8.0 0.00 0.00 0.00 56 1017.8
20180720182759 82 110 2.0 6.0 0.00 0.00 0.00 56 1017.9
20180720181257 82 23 0.0 5.0 0.00 0.00 0.00 57 1018.0
20180720175756 84 95 3.0 8.0 0.00 0.00 0.00 53 1018.1
20180720174300 84 119 0.0 7.0 0.00 0.00 0.00 54 1018.2
20180720172754 84 82 2.0 7.0 0.00 0.00 0.00 52 1018.2
20180720171256 85 79 1.0 4.0 0.00 0.00 0.00 52 1018.3
20180720165756 83 307 1.0 6.0 0.00 0.00 0.00 53 1018.6
20180720164253 84 88 2.0 5.0 0.00 0.00 0.00 48 1018.7
20180720162754 85 112 2.0 6.0 0.00 0.00 0.00 44 1018.7
20180720161255 85 108 1.0 4.0 0.00 0.00 0.00 45 1018.8
20180720155753 85 7 0.0 5.0 0.00 0.00 0.00 44 1018.8
20180720154251 85 105 1.0 6.0 0.00 0.00 0.00 40 1019.0
20180720151245 85 121 1.0 6.0 0.00 0.00 0.00 39 1019.0
20180720145744 85 195 1.0 5.0 0.00 0.00 0.00 42 1019.1
20180720144243 85 197 1.0 7.0 0.00 0.00 0.00 42 1019.0
20180720142741 84 172 1.0 6.0 0.00 0.00 0.00 42 1018.9
20180720141235 83 7 0.0 4.0 0.00 0.00 0.00 46 1019.1
20180720135732 83 129 0.0 6.0 0.00 0.00 0.00 50 1019.0
20180720134230 82 68 0.0 6.0 0.00 0.00 0.00 54 1018.8
20180720132730 82 340 1.0 4.0 0.00 0.00 0.00 69 1018.7
20180720131222 80 72 0.0 4.0 0.00 0.00 0.00 73 1018.7
20180720125725 80 115 0.0 3.0 0.00 0.00 0.00 76 1018.7
20180720124215 78 98 0.0 2.0 0.00 0.00 0.00 80 1018.7
20180720122716 77 64 1.0 4.0 0.00 0.00 0.00 81 1018.5
20180720121210 75 62 0.0 2.0 0.00 0.00 0.00 89 1018.5
20180720115704 72 143 0.0 0.0 0.00 0.00 0.00 99 1018.5